Time;durP1;ratioP1;P1;durP2;ratioP2;P2;SDS_P1;SDS_P2;PMS_P1;PMS_P2;Temp;Humidity;BMP_temperature;BMP_pressure;BME280_temperature;BME280_humidity;BME280_pressure;Samples;Min_cycle;Max_cycle;Signal;HPM_P1;HPM_P2
2021/08/25 00:00:00;;;;;;;3.50;3.20;;;16.60;99.90;;;;;;5111281;28;20237;-71
2021/08/25 00:02:27;;;;;;;3.23;2.93;;;16.50;99.90;;;;;;5111041;28;20264;-71
2021/08/25 00:04:54;;;;;;;3.10;2.90;;;16.50;99.90;;;;;;5110865;28;20234;-71
2021/08/25 00:07:21;;;;;;;3.50;3.20;;;16.50;99.90;;;;;;5110961;28;20213;-71
2021/08/25 00:09:48;;;;;;;3.83;2.93;;;16.50;99.90;;;;;;5111121;28;20202;-71
2021/08/25 00:12:15;;;;;;;3.13;2.80;;;16.50;99.90;;;;;;5111142;28;20263;-71
2021/08/25 00:14:42;;;;;;;4.03;2.87;;;16.40;99.90;;;;;;5110538;28;20225;-71
2021/08/25 00:17:12;;;;;;;3.20;3.00;;;16.40;99.90;;;;;;5111048;28;20758;-71
2021/08/25 00:19:38;;;;;;;3.80;3.13;;;16.40;99.90;;;;;;5110912;28;20242;-71
2021/08/25 00:22:11;;;;;;;3.77;3.00;;;16.40;99.90;;;;;;5110790;28;20526;-71
2021/08/25 00:24:38;;;;;;;4.80;3.10;;;16.40;99.90;;;;;;5110656;28;20214;-71
2021/08/25 00:27:05;;;;;;;3.43;3.13;;;16.40;99.90;;;;;;5110702;27;20226;-71
2021/08/25 00:29:33;;;;;;;4.67;3.00;;;16.40;99.90;;;;;;5110681;28;20222;-71
2021/08/25 00:32:00;;;;;;;3.30;3.00;;;16.40;99.90;;;;;;5110495;28;20285;-71
2021/08/25 00:34:28;;;;;;;3.13;2.93;;;16.30;99.90;;;;;;5110159;28;20230;-71
2021/08/25 00:36:54;;;;;;;3.30;3.00;;;16.30;99.90;;;;;;5110369;28;20210;-71
2021/08/25 00:39:21;;;;;;;3.40;3.10;;;16.20;99.90;;;;;;5110461;28;20210;-71
2021/08/25 00:41:48;;;;;;;4.57;3.67;;;16.10;99.90;;;;;;5110025;28;20206;-72
2021/08/25 00:44:15;;;;;;;3.33;3.03;;;16.10;99.90;;;;;;5110383;28;20210;-72
2021/08/25 00:46:44;;;;;;;3.20;3.00;;;16.10;99.90;;;;;;5109996;28;20656;-71
2021/08/25 00:49:11;;;;;;;5.53;3.37;;;16.00;99.90;;;;;;5110195;28;20206;-71
2021/08/25 00:51:39;;;;;;;3.40;3.10;;;16.00;99.90;;;;;;5110231;28;20229;-71
2021/08/25 00:54:06;;;;;;;4.20;3.50;;;16.00;99.90;;;;;;5109707;28;20241;-71
2021/08/25 00:56:33;;;;;;;4.57;3.30;;;16.00;99.90;;;;;;5110093;28;20357;-71
2021/08/25 00:59:00;;;;;;;3.50;3.20;;;15.90;99.90;;;;;;5110057;28;20209;-72
2021/08/25 01:01:38;;;;;;;3.03;2.80;;;15.90;99.90;;;;;;5109963;27;20206;-71
2021/08/25 01:04:09;;;;;;;3.17;2.93;;;15.90;99.90;;;;;;5109908;28;20221;-72
2021/08/25 01:06:37;;;;;;;3.83;3.43;;;15.90;99.90;;;;;;5110038;28;20247;-72
2021/08/25 01:09:05;;;;;;;4.00;3.20;;;15.90;99.90;;;;;;5109817;28;20242;-71
2021/08/25 01:11:33;;;;;;;3.60;3.30;;;15.80;99.90;;;;;;5109707;28;20199;-71
2021/08/25 01:13:59;;;;;;;7.03;3.17;;;15.80;99.90;;;;;;5109684;28;20270;-72
2021/08/25 01:16:27;;;;;;;3.17;2.87;;;15.80;99.90;;;;;;5109664;28;20213;-72
2021/08/25 01:18:55;;;;;;;3.77;3.47;;;15.70;99.90;;;;;;5109735;28;20210;-73
2021/08/25 01:21:22;;;;;;;3.53;3.23;;;15.70;99.90;;;;;;5109539;28;20226;-73
2021/08/25 01:23:49;;;;;;;4.00;3.50;;;15.70;99.90;;;;;;5109552;28;20202;-73
2021/08/25 01:26:17;;;;;;;3.73;3.43;;;15.70;99.90;;;;;;5109576;28;20255;-73
2021/08/25 01:28:50;;;;;;;5.27;3.47;;;15.60;99.90;;;;;;5109406;28;20587;-73
2021/08/25 01:31:20;;;;;;;4.50;3.83;;;15.60;99.90;;;;;;5109769;28;20227;-73
2021/08/25 01:33:47;;;;;;;4.43;3.17;;;15.50;99.90;;;;;;5109058;28;20613;-73
2021/08/25 01:36:15;;;;;;;4.97;3.83;;;15.50;99.90;;;;;;5109554;28;20256;-72
2021/08/25 01:38:50;;;;;;;3.97;3.43;;;15.50;99.90;;;;;;5109191;28;20198;-74
2021/08/25 01:41:22;;;;;;;4.93;3.57;;;15.40;99.90;;;;;;5109550;28;20283;-72
2021/08/25 01:43:49;;;;;;;3.57;3.27;;;15.40;99.90;;;;;;5109171;28;20338;-73
2021/08/25 01:46:22;;;;;;;4.63;3.50;;;15.40;99.90;;;;;;5109297;28;20206;-72
2021/08/25 01:48:49;;;;;;;6.13;3.60;;;15.30;99.90;;;;;;5109064;28;20259;-73
2021/08/25 01:51:15;;;;;;;5.57;4.40;;;15.30;99.90;;;;;;5109240;27;20206;-72
2021/08/25 01:53:42;;;;;;;4.67;4.27;;;15.30;99.90;;;;;;5108771;28;20582;-72
2021/08/25 01:56:08;;;;;;;5.30;3.80;;;15.30;99.90;;;;;;5109127;28;20237;-73
2021/08/25 01:58:35;;;;;;;4.53;4.13;;;15.20;99.90;;;;;;5109062;28;20206;-72
2021/08/25 02:01:02;;;;;;;5.37;3.90;;;15.20;99.90;;;;;;5109013;28;20202;-73
2021/08/25 02:03:30;;;;;;;5.03;3.90;;;15.20;99.90;;;;;;5108958;28;20258;-72
2021/08/25 02:05:56;;;;;;;4.20;3.63;;;15.20;99.90;;;;;;5109084;28;20202;-73
2021/08/25 02:08:23;;;;;;;5.23;3.70;;;15.10;99.90;;;;;;5108628;28;20735;-70
2021/08/25 02:10:49;;;;;;;4.60;3.60;;;15.10;99.90;;;;;;5108658;28;20251;-71
2021/08/25 02:13:16;;;;;;;4.27;3.87;;;15.10;99.90;;;;;;5108919;28;20259;-70
2021/08/25 02:15:43;;;;;;;4.10;3.60;;;15.00;99.90;;;;;;5108676;28;20275;-70
2021/08/25 02:18:09;;;;;;;5.67;3.60;;;15.00;99.90;;;;;;5108701;28;20295;-71
2021/08/25 02:20:39;;;;;;;4.80;3.60;;;15.00;99.90;;;;;;5104419;28;20247;-71
2021/08/25 02:23:05;;;;;;;5.57;3.67;;;15.00;99.90;;;;;;5108180;28;20611;-72
2021/08/25 02:25:32;;;;;;;4.67;3.80;;;15.00;99.90;;;;;;5108192;28;20229;-72
2021/08/25 02:27:58;;;;;;;4.07;3.73;;;15.00;99.90;;;;;;5108037;28;21003;-73
2021/08/25 02:30:25;;;;;;;4.57;3.77;;;14.90;99.90;;;;;;5108422;28;20648;-72
2021/08/25 02:32:52;;;;;;;4.17;3.77;;;14.90;99.90;;;;;;5102494;28;20294;-72
2021/08/25 02:35:18;;;;;;;4.50;3.50;;;14.90;99.90;;;;;;5102757;28;20311;-73
2021/08/25 02:37:46;;;;;;;3.53;3.23;;;14.90;99.90;;;;;;5104339;28;20237;-72
2021/08/25 02:40:14;;;;;;;4.03;3.73;;;14.80;99.90;;;;;;5104835;28;20237;-72
2021/08/25 02:42:41;;;;;;;6.67;3.93;;;14.80;99.90;;;;;;5104818;28;20233;-72
2021/08/25 02:45:09;;;;;;;4.53;3.77;;;14.80;99.90;;;;;;5104485;28;20241;-72
2021/08/25 02:47:36;;;;;;;4.97;3.67;;;14.70;99.90;;;;;;5104528;28;20630;-72
2021/08/25 02:50:03;;;;;;;4.47;3.67;;;14.70;99.90;;;;;;5104610;28;20205;-75
2021/08/25 02:52:30;;;;;;;3.83;3.53;;;14.70;99.90;;;;;;5104627;28;20603;-75
2021/08/25 02:54:57;;;;;;;4.30;3.73;;;14.70;99.90;;;;;;5104765;28;20273;-75
2021/08/25 02:57:24;;;;;;;5.27;3.83;;;14.70;99.90;;;;;;5104415;28;20294;-72
2021/08/25 02:59:51;;;;;;;4.17;3.77;;;14.70;99.90;;;;;;5104455;28;20241;-72
2021/08/25 03:02:17;;;;;;;5.80;3.53;;;14.60;99.90;;;;;;5104744;28;20228;-72
2021/08/25 03:04:44;;;;;;;4.33;3.33;;;14.60;99.90;;;;;;5104195;28;20663;-75
2021/08/25 03:07:11;;;;;;;3.57;3.27;;;14.60;99.90;;;;;;5104430;28;20213;-73
2021/08/25 03:09:37;;;;;;;4.90;3.63;;;14.50;99.90;;;;;;5104315;28;20625;-72
2021/08/25 03:12:06;;;;;;;3.60;3.30;;;14.50;99.90;;;;;;5104270;28;20283;-72
2021/08/25 03:14:35;;;;;;;5.70;3.50;;;14.50;99.90;;;;;;5103416;28;20279;-72
2021/08/25 03:17:01;;;;;;;4.20;3.63;;;14.50;99.90;;;;;;5103566;28;20621;-72
2021/08/25 03:19:28;;;;;;;5.57;3.37;;;14.40;99.90;;;;;;5102122;28;20267;-72
2021/08/25 03:21:55;;;;;;;3.93;3.63;;;14.40;99.90;;;;;;5106633;28;20241;-73
2021/08/25 03:24:21;;;;;;;5.60;3.50;;;14.40;99.90;;;;;;5106808;28;20245;-72
2021/08/25 03:26:48;;;;;;;3.93;3.53;;;14.40;99.90;;;;;;5106403;28;20251;-72
2021/08/25 03:29:16;;;;;;;3.97;3.57;;;14.30;99.90;;;;;;5106921;28;20250;-72
2021/08/25 03:31:43;;;;;;;6.37;3.37;;;14.30;99.90;;;;;;5108244;28;20241;-72
2021/08/25 03:34:09;;;;;;;3.83;3.47;;;14.30;99.90;;;;;;5110862;28;20251;-72
2021/08/25 03:36:36;;;;;;;3.70;3.40;;;14.20;99.90;;;;;;5111288;28;20962;-72
2021/08/25 03:39:03;;;;;;;6.03;3.50;;;14.20;99.90;;;;;;5111656;28;20381;-72
2021/08/25 03:41:30;;;;;;;4.33;3.10;;;14.20;99.90;;;;;;5111765;28;20220;-72
2021/08/25 03:43:56;;;;;;;4.57;3.63;;;14.20;99.90;;;;;;5111681;28;20255;-72
2021/08/25 03:46:24;;;;;;;4.47;3.80;;;14.10;99.90;;;;;;5111617;28;20202;-72
2021/08/25 03:48:51;;;;;;;3.50;3.20;;;14.20;99.90;;;;;;5111049;28;20627;-72
2021/08/25 03:51:17;;;;;;;4.73;3.50;;;14.10;99.90;;;;;;5111501;28;20251;-72
2021/08/25 03:53:44;;;;;;;3.70;3.10;;;14.10;99.90;;;;;;5111094;28;20280;-72
2021/08/25 03:56:11;;;;;;;4.47;3.20;;;14.10;99.90;;;;;;5111526;28;20265;-72
2021/08/25 03:58:37;;;;;;;3.50;3.20;;;14.10;99.90;;;;;;5111317;28;20280;-72
2021/08/25 04:01:04;;;;;;;4.30;3.27;;;14.00;99.90;;;;;;5111475;28;20255;-72
2021/08/25 04:03:32;;;;;;;4.67;3.57;;;14.00;99.90;;;;;;5111191;28;20793;-71
2021/08/25 04:05:59;;;;;;;5.70;3.70;;;14.00;99.90;;;;;;5111403;28;20250;-71
2021/08/25 04:08:26;;;;;;;4.13;3.50;;;14.00;99.90;;;;;;5111139;28;20210;-71
2021/08/25 04:10:52;;;;;;;3.73;3.43;;;14.00;99.90;;;;;;5111049;28;20234;-71
2021/08/25 04:13:19;;;;;;;3.50;3.20;;;14.00;99.90;;;;;;5111088;28;20197;-72
2021/08/25 04:15:45;;;;;;;3.47;3.17;;;14.00;99.90;;;;;;5110868;27;20230;-72
2021/08/25 04:18:12;;;;;;;4.17;3.73;;;13.90;99.90;;;;;;5110965;28;20283;-71
2021/08/25 04:20:40;;;;;;;3.40;3.03;;;13.90;99.90;;;;;;5109824;27;20246;-71
2021/08/25 04:23:06;;;;;;;3.70;3.40;;;13.90;99.90;;;;;;5110713;28;20214;-71
2021/08/25 04:25:33;;;;;;;3.90;3.47;;;13.80;99.90;;;;;;5110614;28;20836;-71
2021/08/25 04:28:00;;;;;;;5.27;3.80;;;13.80;99.90;;;;;;5110411;28;20267;-71
2021/08/25 04:30:26;;;;;;;5.07;4.57;;;13.80;99.90;;;;;;5110812;28;20260;-71
2021/08/25 04:32:53;;;;;;;4.57;4.17;;;13.80;99.90;;;;;;5110482;28;20268;-71
2021/08/25 04:35:20;;;;;;;8.17;4.27;;;13.80;99.90;;;;;;5110507;28;20651;-71
2021/08/25 04:37:48;;;;;;;4.90;3.83;;;13.80;99.90;;;;;;5110437;27;20209;-71
2021/08/25 04:40:14;;;;;;;4.43;3.60;;;13.80;99.90;;;;;;5110113;28;20682;-71
2021/08/25 04:42:41;;;;;;;3.87;3.27;;;13.80;99.90;;;;;;5109863;28;20275;-71
2021/08/25 04:45:08;;;;;;;3.50;3.20;;;13.80;99.90;;;;;;5110392;28;20236;-71
2021/08/25 04:47:35;;;;;;;3.67;2.97;;;13.80;99.90;;;;;;5110247;28;20262;-71
2021/08/25 04:50:01;;;;;;;4.77;4.00;;;13.80;99.90;;;;;;5110159;28;20263;-71
2021/08/25 04:52:28;;;;;;;3.30;3.00;;;13.80;99.90;;;;;;5110120;28;20202;-71
2021/08/25 04:54:56;;;;;;;3.93;3.50;;;13.80;99.90;;;;;;5109767;28;20583;-71
2021/08/25 04:57:23;;;;;;;5.20;3.63;;;13.80;99.90;;;;;;5109735;28;20679;-71
2021/08/25 04:59:49;;;;;;;5.33;3.60;;;13.80;99.90;;;;;;5109918;28;20293;-71
2021/08/25 05:02:16;;;;;;;5.30;3.83;;;13.80;99.90;;;;;;5109909;28;20230;-71
2021/08/25 05:04:42;;;;;;;4.10;3.70;;;13.80;99.90;;;;;;5109955;28;20206;-70
2021/08/25 05:07:09;;;;;;;3.97;3.30;;;13.80;99.90;;;;;;5109989;27;20263;-71
2021/08/25 05:09:36;;;;;;;4.20;3.60;;;13.80;99.90;;;;;;5109660;28;20946;-71
2021/08/25 05:12:04;;;;;;;3.87;3.47;;;13.80;99.90;;;;;;5109962;28;20238;-71
2021/08/25 05:14:31;;;;;;;3.83;3.43;;;13.90;99.90;;;;;;5109956;28;20242;-71
2021/08/25 05:16:57;;;;;;;5.40;3.73;;;13.90;99.90;;;;;;5109681;28;20248;-71
2021/08/25 05:19:24;;;;;;;4.10;3.67;;;13.90;99.90;;;;;;5093324;28;20252;-71
2021/08/25 05:21:51;;;;;;;4.07;3.37;;;13.80;99.90;;;;;;5109276;28;20197;-70
2021/08/25 05:24:17;;;;;;;4.23;3.40;;;13.80;99.90;;;;;;5109563;28;20832;-71
2021/08/25 05:26:44;;;;;;;4.20;3.80;;;13.90;99.90;;;;;;5109291;28;20290;-71
2021/08/25 05:29:12;;;;;;;4.90;3.80;;;13.90;99.90;;;;;;5109614;28;20255;-71
2021/08/25 05:31:40;;;;;;;5.50;3.70;;;13.90;99.90;;;;;;5109249;28;20706;-71
2021/08/25 05:34:06;;;;;;;7.37;4.00;;;13.90;99.90;;;;;;5109302;28;20287;-71
2021/08/25 05:36:33;;;;;;;6.40;3.97;;;13.70;99.90;;;;;;5109363;28;20286;-71
2021/08/25 05:38:59;;;;;;;4.97;3.70;;;13.70;99.90;;;;;;5108948;28;20700;-71
2021/08/25 05:41:26;;;;;;;7.53;4.10;;;13.80;99.90;;;;;;5109058;28;20214;-71
2021/08/25 05:43:53;;;;;;;4.37;3.77;;;14.00;99.90;;;;;;5109227;28;20206;-71
2021/08/25 05:46:21;;;;;;;5.10;3.60;;;14.10;99.90;;;;;;5109237;28;20245;-71
2021/08/25 05:48:47;;;;;;;5.13;3.33;;;14.20;99.90;;;;;;5109042;28;20291;-71
2021/08/25 05:51:14;;;;;;;6.00;3.60;;;14.30;99.90;;;;;;5108992;28;20267;-71
2021/08/25 05:53:41;;;;;;;3.70;3.30;;;14.40;99.90;;;;;;5107871;28;20779;-71
2021/08/25 05:56:07;;;;;;;3.37;3.10;;;14.50;99.90;;;;;;5108786;28;20290;-71
2021/08/25 05:58:34;;;;;;;3.50;3.20;;;14.60;99.90;;;;;;5109079;28;20205;-71
2021/08/25 06:01:00;;;;;;;3.33;3.03;;;14.60;99.90;;;;;;5108943;28;20263;-71
2021/08/25 06:03:28;;;;;;;3.77;3.47;;;14.60;99.90;;;;;;5108712;28;20283;-71
2021/08/25 06:05:55;;;;;;;8.17;3.40;;;14.70;99.90;;;;;;5108713;28;20202;-71
2021/08/25 06:08:21;;;;;;;3.80;3.50;;;14.70;99.90;;;;;;5108789;28;20214;-71
2021/08/25 06:10:48;;;;;;;4.03;3.40;;;14.50;99.90;;;;;;5108733;28;20729;-71
2021/08/25 06:13:15;;;;;;;3.70;3.40;;;14.50;99.90;;;;;;5108782;28;20286;-71
2021/08/25 06:15:41;;;;;;;4.17;3.73;;;14.60;99.90;;;;;;5108719;28;20283;-71
2021/08/25 06:18:08;;;;;;;3.50;3.30;;;14.50;99.90;;;;;;5108777;28;20635;-71
2021/08/25 06:20:37;;;;;;;4.67;3.47;;;14.60;99.90;;;;;;5108763;28;20266;-71
2021/08/25 06:23:04;;;;;;;3.43;3.00;;;14.70;99.90;;;;;;5108561;28;20259;-71
2021/08/25 06:25:30;;;;;;;3.73;3.43;;;14.70;99.90;;;;;;5108622;28;20353;-71
2021/08/25 06:27:59;;;;;;;4.17;3.50;;;14.80;99.90;;;;;;5108466;28;20233;-71
2021/08/25 06:30:25;;;;;;;6.50;3.90;;;14.90;99.90;;;;;;5108726;28;20206;-71
2021/08/25 06:32:53;;;;;;;6.53;4.37;;;14.90;99.90;;;;;;5108179;28;20202;-71
2021/08/25 06:35:20;;;;;;;5.30;4.00;;;14.90;99.90;;;;;;5108478;28;20279;-71
2021/08/25 06:37:48;;;;;;;4.20;3.80;;;14.60;99.90;;;;;;5108249;28;20206;-71
2021/08/25 06:40:15;;;;;;;5.17;3.80;;;14.50;99.90;;;;;;5108494;28;20664;-72
2021/08/25 06:42:42;;;;;;;5.67;4.00;;;14.60;99.90;;;;;;5108686;28;20206;-72
2021/08/25 06:45:10;;;;;;;6.47;3.77;;;14.50;99.90;;;;;;5108573;28;20210;-72
2021/08/25 06:47:37;;;;;;;5.97;3.73;;;14.50;99.90;;;;;;5108684;28;20237;-72
2021/08/25 06:50:04;;;;;;;4.20;3.47;;;14.30;99.90;;;;;;5108011;28;20216;-72
2021/08/25 06:52:31;;;;;;;5.90;3.77;;;14.20;99.90;;;;;;5108643;28;20299;-72
2021/08/25 06:54:59;;;;;;;4.03;3.67;;;14.30;99.90;;;;;;5108072;28;21032;-72
2021/08/25 06:57:26;;;;;;;4.30;3.90;;;14.30;99.90;;;;;;5108336;28;20206;-72
2021/08/25 06:59:52;;;;;;;4.00;3.47;;;14.40;99.90;;;;;;5108189;28;20202;-71
2021/08/25 07:02:19;;;;;;;6.97;4.00;;;14.40;99.90;;;;;;5108436;28;20258;-71
2021/08/25 07:04:46;;;;;;;5.03;3.70;;;14.50;99.90;;;;;;5108330;28;20641;-71
2021/08/25 07:07:13;;;;;;;4.57;3.80;;;14.60;99.90;;;;;;5112382;28;20217;-72
2021/08/25 07:09:39;;;;;;;5.57;3.70;;;14.80;99.90;;;;;;5112291;28;20202;-71
2021/08/25 07:12:08;;;;;;;4.03;3.53;;;14.90;99.90;;;;;;5112227;28;20206;-72
2021/08/25 07:14:35;;;;;;;6.57;4.03;;;14.90;99.90;;;;;;5111798;28;20209;-71
2021/08/25 07:17:02;;;;;;;4.10;3.70;;;15.00;99.90;;;;;;5111676;28;20762;-71
2021/08/25 07:19:28;;;;;;;4.90;3.63;;;14.90;99.90;;;;;;5112238;28;20230;-71
2021/08/25 07:21:55;;;;;;;3.40;3.10;;;15.00;99.90;;;;;;5111614;28;20717;-72
2021/08/25 07:24:21;;;;;;;3.50;3.20;;;15.20;99.90;;;;;;5112012;28;20222;-71
2021/08/25 07:26:48;;;;;;;4.77;3.30;;;15.20;99.90;;;;;;5111526;28;20746;-72
2021/08/25 07:29:16;;;;;;;3.50;3.13;;;15.20;99.90;;;;;;5111916;28;20255;-72
2021/08/25 07:31:42;;;;;;;3.27;2.97;;;15.30;99.90;;;;;;5111658;28;20637;-71
2021/08/25 07:34:09;;;;;;;3.17;2.87;;;15.40;99.90;;;;;;5111498;28;20753;-71
2021/08/25 07:36:36;;;;;;;3.17;2.83;;;15.50;99.90;;;;;;5111832;28;20295;-71
2021/08/25 07:39:02;;;;;;;3.50;3.00;;;15.50;99.90;;;;;;5111838;28;20278;-71
2021/08/25 07:41:29;;;;;;;3.20;2.53;;;15.70;99.90;;;;;;5111806;28;20251;-71
2021/08/25 07:43:56;;;;;;;4.57;2.90;;;15.60;99.90;;;;;;5111665;28;20247;-70
2021/08/25 07:46:26;;;;;;;5.37;3.10;;;15.60;99.90;;;;;;5111552;28;20255;-70
2021/08/25 07:48:53;;;;;;;3.43;3.13;;;15.70;99.90;;;;;;5111205;28;20194;-70
2021/08/25 07:51:19;;;;;;;4.67;2.80;;;15.70;99.90;;;;;;5111615;28;20251;-73
2021/08/25 07:53:46;;;;;;;2.63;2.43;;;15.80;99.90;;;;;;5111144;28;20237;-72
2021/08/25 07:56:12;;;;;;;5.00;2.80;;;15.80;99.90;;;;;;5111377;28;20265;-72
2021/08/25 07:58:39;;;;;;;4.37;2.67;;;15.80;99.90;;;;;;5111468;28;20202;-72
2021/08/25 08:01:08;;;;;;;3.20;2.87;;;15.90;99.90;;;;;;5111196;28;20206;-72
2021/08/25 08:03:36;;;;;;;3.47;2.80;;;15.90;99.90;;;;;;5111109;28;20226;-73
2021/08/25 08:06:03;;;;;;;3.03;2.77;;;15.80;99.90;;;;;;5111159;28;20255;-72
2021/08/25 08:08:30;;;;;;;2.87;2.57;;;15.80;99.90;;;;;;5111103;28;20206;-73
2021/08/25 08:10:56;;;;;;;3.87;2.83;;;15.90;99.90;;;;;;5111016;28;20255;-73
2021/08/25 08:13:23;;;;;;;3.80;2.80;;;15.90;99.90;;;;;;5111020;28;20206;-73
2021/08/25 08:15:50;;;;;;;5.83;2.57;;;16.00;99.90;;;;;;5110801;28;20222;-73
2021/08/25 08:18:21;;;;;;;3.00;2.77;;;16.10;99.90;;;;;;5110255;28;20248;-73
2021/08/25 08:20:49;;;;;;;3.50;3.20;;;16.30;99.90;;;;;;5110585;28;20717;-73
2021/08/25 08:23:16;;;;;;;3.47;3.13;;;16.30;99.90;;;;;;5110879;28;20287;-73
2021/08/25 08:25:42;;;;;;;3.27;2.90;;;16.40;99.90;;;;;;5110680;28;20275;-72
2021/08/25 08:28:09;;;;;;;3.30;3.00;;;16.40;99.90;;;;;;5110766;28;20230;-73
2021/08/25 08:30:37;;;;;;;3.93;3.13;;;16.50;99.90;;;;;;5110753;28;20243;-73
2021/08/25 08:33:04;;;;;;;3.90;2.90;;;16.50;99.90;;;;;;5110335;28;20710;-73
2021/08/25 08:35:31;;;;;;;3.73;2.93;;;16.60;99.90;;;;;;5110386;28;20659;-71
2021/08/25 08:38:01;;;;;;;5.03;3.37;;;16.70;99.90;;;;;;5110055;28;20695;-70
2021/08/25 08:40:27;;;;;;;4.90;3.50;;;16.70;99.90;;;;;;5110575;28;20244;-70
2021/08/25 08:42:54;;;;;;;3.20;2.97;;;16.70;99.90;;;;;;5110557;28;20282;-70
2021/08/25 08:45:21;;;;;;;3.07;2.70;;;16.80;99.90;;;;;;5110526;28;20242;-70
2021/08/25 08:47:48;;;;;;;4.23;3.17;;;16.80;99.90;;;;;;5110293;28;20255;-72
2021/08/25 08:50:15;;;;;;;3.67;2.90;;;16.80;99.90;;;;;;5110480;28;20205;-73
2021/08/25 08:52:44;;;;;;;5.30;2.87;;;17.00;99.90;;;;;;5110167;28;20950;-73
2021/08/25 08:55:13;;;;;;;4.17;3.17;;;17.10;99.90;;;;;;5109606;28;20699;-70
2021/08/25 08:57:39;;;;;;;3.20;2.90;;;17.10;99.90;;;;;;5110207;28;20225;-70
2021/08/25 09:00:07;;;;;;;6.43;3.20;;;17.10;99.90;;;;;;5110018;28;20274;-73
2021/08/25 09:02:41;;;;;;;3.43;2.90;;;17.20;99.90;;;;;;5110180;28;20230;-73
2021/08/25 09:05:20;;;;;;;4.93;3.47;;;17.20;99.90;;;;;;5109847;27;20245;-74
2021/08/25 09:07:56;;;;;;;4.90;3.20;;;17.30;99.90;;;;;;5110025;28;20620;-73
2021/08/25 09:10:28;;;;;;;4.57;3.10;;;17.20;99.90;;;;;;5109574;28;20201;-73
2021/08/25 09:12:57;;;;;;;4.50;3.00;;;17.20;99.90;;;;;;5109852;28;20239;-73
2021/08/25 09:15:25;;;;;;;3.37;2.97;;;17.10;99.90;;;;;;5109610;28;20221;-73
2021/08/25 09:17:59;;;;;;;4.73;3.07;;;17.00;99.90;;;;;;5109645;28;20302;-73
2021/08/25 09:20:26;;;;;;;3.97;3.10;;;17.10;99.90;;;;;;5109625;28;20231;-72
2021/08/25 09:23:14;;;;;;;6.23;3.67;;;17.10;99.90;;;;;;5109594;28;20202;-73
2021/08/25 09:25:43;;;;;;;4.73;3.37;;;17.20;99.90;;;;;;5109542;28;20195;-70
2021/08/25 09:28:12;;;;;;;3.37;2.93;;;17.30;99.90;;;;;;5109318;28;20255;-73
2021/08/25 09:30:57;;;;;;;3.37;3.07;;;17.30;99.90;;;;;;5108989;28;20672;-73
2021/08/25 09:33:26;;;;;;;3.43;3.13;;;17.40;99.90;;;;;;5109465;28;20194;-72
2021/08/25 09:35:56;;;;;;;3.73;3.33;;;17.30;99.90;;;;;;5109014;28;20206;-72
2021/08/25 09:38:25;;;;;;;3.73;3.10;;;17.30;99.90;;;;;;5109609;28;20559;-73
2021/08/25 09:40:55;;;;;;;4.70;2.87;;;17.30;99.90;;;;;;5109083;28;20208;-73
2021/08/25 09:43:32;;;;;;;3.77;3.37;;;17.20;99.90;;;;;;5109065;28;20198;-73
2021/08/25 09:46:04;;;;;;;3.60;3.03;;;17.20;99.90;;;;;;5108943;28;20255;-73
2021/08/25 09:48:34;;;;;;;5.20;2.90;;;17.20;99.90;;;;;;5109249;28;20608;-73
2021/08/25 09:51:01;;;;;;;4.37;3.30;;;17.30;99.90;;;;;;5109062;28;20289;-73
2021/08/25 09:53:28;;;;;;;3.40;3.10;;;17.30;99.90;;;;;;5108688;28;20238;-73
2021/08/25 09:55:56;;;;;;;3.07;2.87;;;17.30;99.90;;;;;;5108734;28;20724;-73
2021/08/25 09:58:24;;;;;;;3.23;2.93;;;17.30;99.90;;;;;;5108673;28;20867;-73
2021/08/25 10:00:53;;;;;;;3.80;3.17;;;17.30;99.90;;;;;;5108849;28;20251;-73
2021/08/25 10:03:20;;;;;;;3.17;2.93;;;17.40;99.90;;;;;;5109144;28;20685;-73
2021/08/25 10:05:47;;;;;;;4.47;3.07;;;17.50;99.90;;;;;;5108615;28;20725;-73
2021/08/25 10:08:14;;;;;;;4.20;3.10;;;17.40;99.90;;;;;;5108955;28;20210;-73
2021/08/25 10:10:41;;;;;;;3.43;2.67;;;17.40;99.90;;;;;;5108822;28;20675;-70
2021/08/25 10:13:10;;;;;;;2.90;2.60;;;17.50;99.90;;;;;;5108724;28;20241;-70
2021/08/25 10:15:40;;;;;;;3.60;2.80;;;17.50;99.90;;;;;;5108786;28;20210;-71
2021/08/25 10:18:26;;;;;;;4.97;2.80;;;17.50;99.90;;;;;;5108596;28;20237;-73
2021/08/25 10:20:54;;;;;;;3.17;2.87;;;17.50;99.90;;;;;;5108603;28;20190;-70
2021/08/25 10:23:41;;;;;;;2.90;2.70;;;17.40;99.90;;;;;;5108357;28;20229;-70
2021/08/25 10:26:09;;;;;;;2.97;2.67;;;17.40;99.90;;;;;;5108177;28;20202;-70
2021/08/25 10:29:03;;;;;;;4.57;2.90;;;17.40;99.90;;;;;;5108648;28;20198;-70
2021/08/25 10:32:03;;;;;;;3.70;3.00;;;17.40;99.90;;;;;;5108537;28;20213;-70
2021/08/25 10:34:33;;;;;;;3.23;2.93;;;17.40;99.90;;;;;;5108310;28;20274;-70
2021/08/25 10:37:29;;;;;;;3.27;2.97;;;17.30;99.90;;;;;;5108728;28;20218;-70
2021/08/25 10:40:01;;;;;;;4.00;3.07;;;17.30;99.90;;;;;;5108623;28;21093;-70
2021/08/25 10:42:53;;;;;;;3.90;3.40;;;17.30;99.90;;;;;;5112718;28;20248;-70
2021/08/25 10:45:55;;;;;;;5.47;2.93;;;17.30;99.90;;;;;;5112635;28;20212;-70
2021/08/25 10:48:46;;;;;;;3.27;2.97;;;17.40;99.90;;;;;;5112567;28;20216;-70
2021/08/25 10:51:44;;;;;;;6.07;3.47;;;17.60;99.90;;;;;;5112571;28;20284;-71
2021/08/25 10:54:16;;;;;;;3.83;3.17;;;17.80;99.90;;;;;;5107292;28;20241;-71
2021/08/25 10:56:46;;;;;;;3.73;3.00;;;17.80;99.90;;;;;;5112207;28;20574;-71
2021/08/25 10:59:14;;;;;;;3.63;3.30;;;17.80;99.90;;;;;;5112361;28;20198;-71
2021/08/25 11:01:43;;;;;;;4.37;3.37;;;17.90;99.90;;;;;;5112082;28;20219;-71
2021/08/25 11:04:15;;;;;;;3.67;3.37;;;17.90;99.90;;;;;;5112283;28;20249;-72
2021/08/25 11:06:44;;;;;;;4.83;3.13;;;18.00;99.90;;;;;;5111870;28;20591;-72
2021/08/25 11:09:15;;;;;;;3.30;3.00;;;18.10;99.90;;;;;;5112060;28;20284;-72
2021/08/25 11:11:45;;;;;;;3.77;3.30;;;18.40;99.90;;;;;;5112184;28;20194;-72
2021/08/25 11:14:23;;;;;;;3.57;3.10;;;18.70;99.90;;;;;;5112452;28;20257;-72
2021/08/25 11:16:52;;;;;;;5.73;3.13;;;19.00;99.90;;;;;;5112115;28;20210;-72
2021/08/25 11:19:27;;;;;;;5.80;3.03;;;19.10;99.90;;;;;;5111876;28;20255;-72
2021/08/25 11:21:55;;;;;;;3.80;3.43;;;19.40;99.90;;;;;;5112080;28;20197;-72
2021/08/25 11:24:22;;;;;;;4.07;2.90;;;19.70;99.90;;;;;;5111893;28;20303;-72
2021/08/25 11:26:49;;;;;;;3.67;3.23;;;19.80;99.90;;;;;;5111886;28;20233;-72
2021/08/25 11:29:21;;;;;;;4.93;3.07;;;19.80;99.90;;;;;;5110685;28;20676;-72
2021/08/25 11:31:49;;;;;;;2.93;2.70;;;19.80;99.90;;;;;;5111043;28;20279;-72
2021/08/25 11:34:18;;;;;;;3.13;2.93;;;19.70;99.90;;;;;;5111774;28;20274;-72
2021/08/25 11:36:53;;;;;;;3.70;3.00;;;19.70;99.90;;;;;;5111276;28;20657;-72
2021/08/25 11:39:19;;;;;;;3.47;3.03;;;19.80;99.90;;;;;;5111921;28;20202;-72
2021/08/25 11:41:47;;;;;;;3.17;2.97;;;19.90;99.90;;;;;;5111415;28;20573;-72
2021/08/25 11:44:13;;;;;;;4.63;3.20;;;20.00;99.90;;;;;;5111501;28;20290;-72
2021/08/25 11:46:40;;;;;;;3.37;3.07;;;20.00;99.90;;;;;;5111551;28;20206;-72
2021/08/25 11:49:07;;;;;;;4.50;3.13;;;20.10;99.90;;;;;;5111463;28;20251;-72
2021/08/25 11:51:38;;;;;;;3.57;2.90;;;20.20;99.90;;;;;;5110676;28;20237;-72
2021/08/25 11:54:04;;;;;;;4.23;3.43;;;20.30;99.90;;;;;;5110654;28;20783;-72
2021/08/25 11:56:31;;;;;;;6.20;3.60;;;20.50;99.90;;;;;;5110954;28;20672;-72
2021/08/25 11:59:09;;;;;;;5.23;3.37;;;20.60;99.90;;;;;;5110883;28;20265;-72
2021/08/25 12:01:36;;;;;;;3.33;3.03;;;20.80;99.90;;;;;;5111182;28;20261;-72
2021/08/25 12:04:02;;;;;;;5.60;3.07;;;20.80;99.90;;;;;;5111038;28;20210;-72
2021/08/25 12:06:43;;;;;;;5.60;3.27;;;20.90;99.90;;;;;;5111212;28;20475;-72
2021/08/25 12:09:10;;;;;;;6.03;3.20;;;20.80;99.90;;;;;;5110999;28;20284;-72
2021/08/25 12:11:54;;;;;;;3.40;3.10;;;20.80;99.90;;;;;;5111195;28;20550;-72
2021/08/25 12:14:20;;;;;;;6.83;3.57;;;20.70;99.90;;;;;;5110736;28;20216;-72
2021/08/25 12:17:02;;;;;;;3.30;3.00;;;20.80;99.90;;;;;;5110928;28;20229;-72
2021/08/25 12:19:29;;;;;;;4.33;3.50;;;20.90;99.90;;;;;;5110950;28;20289;-72
2021/08/25 12:21:57;;;;;;;3.80;3.20;;;20.60;99.90;;;;;;5111114;28;20216;-72
2021/08/25 12:24:23;;;;;;;3.20;2.90;;;20.50;99.90;;;;;;5110948;28;20258;-72
2021/08/25 12:26:55;;;;;;;3.40;3.10;;;20.50;99.90;;;;;;5110613;28;20231;-72
2021/08/25 12:29:29;;;;;;;5.93;3.53;;;20.40;99.90;;;;;;5110659;28;20232;-72
2021/08/25 12:31:57;;;;;;;3.57;3.27;;;20.30;99.90;;;;;;5110433;28;20192;-72
2021/08/25 12:34:24;;;;;;;4.97;2.97;;;20.30;99.90;;;;;;5110631;28;20264;-72
2021/08/25 12:36:56;;;;;;;4.57;3.43;;;20.30;99.90;;;;;;5110526;28;20615;-72
2021/08/25 12:39:28;;;;;;;5.17;3.10;;;20.50;99.90;;;;;;5110001;28;20567;-72
2021/08/25 12:41:56;;;;;;;3.47;3.20;;;20.50;99.90;;;;;;5110596;28;20198;-72
2021/08/25 12:44:23;;;;;;;4.23;3.10;;;20.50;99.90;;;;;;5110357;28;20206;-72
2021/08/25 12:46:51;;;;;;;3.37;3.07;;;20.40;99.90;;;;;;5110259;28;20699;-72
2021/08/25 12:49:19;;;;;;;3.50;2.90;;;20.40;99.90;;;;;;5110196;28;20759;-72
2021/08/25 12:51:46;;;;;;;3.67;3.27;;;20.40;99.90;;;;;;5110143;28;20258;-72
2021/08/25 12:54:13;;;;;;;4.87;3.00;;;20.70;99.90;;;;;;5109575;28;20234;-72